Time;durP1;ratioP1;P1;durP2;ratioP2;P2;SDS_P1;SDS_P2;PMS_P1;PMS_P2;Temp;Humidity;BMP_temperature;BMP_pressure;BME280_temperature;BME280_humidity;BME280_pressure;Samples;Min_cycle;Max_cycle;Signal;HPM_P1;HPM_P2
2022/04/04 00:00:09;;;;;;;16.93;12.05;;;;;;;2.88;100.00;100039.07;1670361;85;21079;-80
2022/04/04 00:02:39;;;;;;;15.90;12.18;;;;;;;2.90;100.00;100052.22;1662095;85;21050;-81
2022/04/04 00:05:07;;;;;;;17.87;12.88;;;;;;;2.89;100.00;100037.70;1655264;85;21587;-79
2022/04/04 00:07:34;;;;;;;12.25;10.95;;;;;;;2.91;100.00;100042.78;1656921;86;21053;-80
2022/04/04 00:10:03;;;;;;;14.50;12.07;;;;;;;2.89;100.00;100046.70;1655180;86;21093;-79
2022/04/04 00:12:31;;;;;;;15.03;11.83;;;;;;;2.90;100.00;100059.12;1655499;85;21520;-83
2022/04/04 00:14:59;;;;;;;12.50;11.20;;;;;;;2.90;100.00;100059.12;1655050;86;21816;-79
2022/04/04 00:17:28;;;;;;;13.35;11.53;;;;;;;2.88;100.00;100056.63;1655071;86;21022;-81
2022/04/04 00:19:56;;;;;;;13.45;12.03;;;;;;;2.88;100.00;100056.63;1655591;86;21145;-79
2022/04/04 00:22:24;;;;;;;13.88;11.70;;;;;;;2.90;100.00;100065.08;1655288;86;21595;-80
2022/04/04 00:24:51;;;;;;;16.67;12.10;;;;;;;2.91;100.00;100064.17;1655891;86;21125;-79
2022/04/04 00:27:18;;;;;;;12.70;11.18;;;;;;;2.91;100.00;100064.64;1655437;86;21018;-79
2022/04/04 00:29:46;;;;;;;14.15;11.63;;;;;;;2.91;100.00;100076.22;1655438;86;21042;-80
2022/04/04 00:32:13;;;;;;;14.00;11.57;;;;;;;2.88;100.00;100060.93;1655537;85;21065;-80
2022/04/04 00:34:42;;;;;;;13.62;11.05;;;;;;;2.88;100.00;100060.93;1655117;86;21049;-86
2022/04/04 00:37:09;;;;;;;12.45;11.03;;;;;;;2.93;100.00;100070.52;1655631;86;21102;-85
2022/04/04 00:39:37;;;;;;;13.40;11.55;;;;;;;2.94;100.00;100069.61;1655428;86;21652;-84
2022/04/04 00:42:08;;;;;;;12.10;10.68;;;;;;;2.94;100.00;100069.17;1655084;86;21120;-80
2022/04/04 00:44:35;;;;;;;14.30;11.70;;;;;;;2.93;100.00;100071.80;1655014;86;21335;-80
2022/04/04 00:47:03;;;;;;;12.58;11.22;;;;;;;2.92;100.00;100073.55;1655284;86;21038;-80
2022/04/04 00:49:30;;;;;;;12.88;11.28;;;;;;;2.94;100.00;100072.17;1641836;86;21041;-78
2022/04/04 00:51:58;;;;;;;15.32;12.18;;;;;;;2.94;100.00;100072.17;1629968;85;21141;-80
2022/04/04 00:54:25;;;;;;;14.53;11.03;;;;;;;2.93;100.00;100071.36;1642685;86;21047;-81
2022/04/04 00:56:56;;;;;;;14.98;12.25;;;;;;;2.93;100.00;100071.36;1654138;85;21375;-78
2022/04/04 00:59:23;;;;;;;14.55;12.00;;;;;;;2.93;100.00;100077.80;1658346;86;21089;-79
2022/04/04 01:02:02;;;;;;;13.95;11.50;;;;;;;2.89;100.00;100089.13;1658718;86;21093;-78
2022/04/04 01:04:22;;;;;;;;;;;;;;;2.89;100.00;100089.13;1612371;88;21679;-79
2022/04/04 01:06:51;;;;;;;9.25;8.20;;;;;;;2.79;100.00;100087.97;1625365;87;20150;-79
2022/04/04 01:09:19;;;;;;;8.78;7.00;;;;;;;2.65;100.00;100086.09;1642111;87;21065;-79
2022/04/04 01:12:10;;;;;;;7.67;6.35;;;;;;;2.57;100.00;100086.92;1677019;85;21707;-83
2022/04/04 01:14:42;;;;;;;7.00;6.28;;;;;;;2.50;100.00;100102.66;1670191;85;21024;-81
2022/04/04 01:17:10;;;;;;;6.40;5.67;;;;;;;2.45;100.00;100100.75;1677322;85;21256;-79
2022/04/04 01:19:39;;;;;;;6.37;5.75;;;;;;;2.39;100.00;100098.95;1670188;85;21035;-80
2022/04/04 01:22:11;;;;;;;6.58;5.92;;;;;;;2.35;100.00;100108.09;1647856;86;21057;-80
2022/04/04 01:24:41;;;;;;;6.42;5.80;;;;;;;2.35;100.00;100108.09;1650057;85;21118;-79
2022/04/04 01:27:17;;;;;;;5.87;5.28;;;;;;;2.31;100.00;100106.59;1650707;86;21015;-80
2022/04/04 01:29:45;;;;;;;6.05;5.45;;;;;;;2.28;100.00;100105.45;1650125;86;22278;-79
2022/04/04 01:32:13;;;;;;;6.15;5.55;;;;;;;2.26;100.00;100112.39;1649802;85;21134;-81
2022/04/04 01:34:41;;;;;;;6.40;5.78;;;;;;;2.26;100.00;100110.28;1650307;86;21631;-81
2022/04/04 01:37:08;;;;;;;6.03;5.53;;;;;;;2.23;100.00;100115.13;1649976;86;21069;-80
2022/04/04 01:39:36;;;;;;;7.17;6.40;;;;;;;2.23;100.00;100115.13;1650162;86;21596;-79
2022/04/04 01:42:05;;;;;;;7.10;6.40;;;;;;;2.21;100.00;100110.50;1650460;86;21114;-80
2022/04/04 01:44:33;;;;;;;6.60;5.90;;;;;;;2.17;100.00;100114.96;1650384;85;21114;-80
2022/04/04 01:47:01;;;;;;;7.50;6.80;;;;;;;2.17;100.00;100114.96;1650328;86;21027;-79
2022/04/04 01:49:28;;;;;;;8.15;6.80;;;;;;;2.20;100.00;100121.69;1650183;86;21084;-79
2022/04/04 01:51:56;;;;;;;7.65;6.85;;;;;;;2.20;100.00;100116.55;1650216;86;21386;-79
2022/04/04 01:54:23;;;;;;;8.35;7.40;;;;;;;2.20;100.00;100116.55;1650113;86;21363;-79
2022/04/04 01:56:51;;;;;;;8.93;7.08;;;;;;;2.23;100.00;100122.83;1650433;86;21547;-82
2022/04/04 01:59:19;;;;;;;8.30;7.47;;;;;;;2.23;100.00;100126.69;1650219;86;21046;-79
2022/04/04 02:01:46;;;;;;;7.78;6.97;;;;;;;2.24;100.00;100126.22;1625377;88;21022;-78
2022/04/04 02:04:14;;;;;;;9.18;7.15;;;;;;;2.27;100.00;100132.51;1625421;88;21045;-78
2022/04/04 02:06:41;;;;;;;9.30;8.40;;;;;;;2.27;100.00;100132.51;1631785;85;21595;-80
2022/04/04 02:09:10;;;;;;;10.82;7.60;;;;;;;2.25;100.00;100136.88;1676890;85;21139;-80
2022/04/04 02:11:38;;;;;;;10.30;7.15;;;;;;;2.25;100.00;100137.70;1670455;85;21079;-85
2022/04/04 02:14:07;;;;;;;9.83;7.08;;;;;;;2.25;100.00;100137.70;1676900;85;21579;-84
2022/04/04 02:16:34;;;;;;;9.20;6.90;;;;;;;2.24;100.00;100142.92;1670192;85;21043;-83
2022/04/04 02:19:04;;;;;;;8.30;6.83;;;;;;;2.25;100.00;100145.87;1677464;85;21184;-81
2022/04/04 02:21:34;;;;;;;7.10;6.50;;;;;;;2.27;100.00;100150.49;1670086;85;21091;-79
2022/04/04 02:24:02;;;;;;;6.97;6.03;;;;;;;2.29;100.00;100151.23;1646611;86;21024;-80
2022/04/04 02:26:29;;;;;;;7.87;6.53;;;;;;;2.31;100.00;100146.86;1641752;87;21109;-79
2022/04/04 02:28:58;;;;;;;8.15;6.83;;;;;;;2.33;100.00;100159.19;1677351;85;21541;-80
2022/04/04 02:31:26;;;;;;;6.75;5.80;;;;;;;2.33;100.00;100159.19;1670318;85;21582;-80
2022/04/04 02:33:53;;;;;;;7.00;6.30;;;;;;;2.31;100.00;100155.84;1677533;85;20972;-79
2022/04/04 02:36:20;;;;;;;8.83;6.85;;;;;;;2.30;100.00;100149.05;1670449;85;21062;-80
2022/04/04 02:38:48;;;;;;;6.58;5.97;;;;;;;2.31;100.00;100168.27;1677553;85;21063;-80
2022/04/04 02:41:15;;;;;;;7.92;7.15;;;;;;;2.32;100.00;100163.47;1670432;85;21071;-78
2022/04/04 02:43:43;;;;;;;8.35;7.55;;;;;;;2.31;100.00;100180.26;1673426;85;21584;-78
2022/04/04 02:46:12;;;;;;;7.85;7.10;;;;;;;2.19;100.00;100188.95;1668996;85;21058;-80
2022/04/04 02:48:41;;;;;;;7.87;7.05;;;;;;;2.19;100.00;100188.95;1670044;85;21048;-78
2022/04/04 02:51:09;;;;;;;6.83;6.12;;;;;;;2.10;100.00;100187.23;1677300;85;20983;-79
2022/04/04 02:53:37;;;;;;;7.70;6.90;;;;;;;2.00;100.00;100191.98;1670740;85;21095;-83
2022/04/04 02:58:51;;;;;;;7.55;6.42;;;;;;;1.89;100.00;100192.47;1670167;85;21063;-78
2022/04/04 03:01:20;;;;;;;6.85;6.08;;;;;;;1.85;100.00;100198.20;1677762;85;21054;-80
2022/04/04 03:03:47;;;;;;;6.40;5.75;;;;;;;1.80;100.00;100196.30;1670306;85;21063;-84
2022/04/04 03:06:15;;;;;;;7.05;6.00;;;;;;;1.77;100.00;100196.44;1677508;85;21106;-83
2022/04/04 03:08:42;;;;;;;6.33;5.72;;;;;;;1.73;100.00;100197.45;1677713;85;21293;-88
2022/04/04 03:11:09;;;;;;;6.42;5.83;;;;;;;1.71;100.00;100204.41;1677509;84;21039;-86
2022/04/04 03:13:36;;;;;;;5.83;5.22;;;;;;;1.67;100.00;100211.42;1670252;85;21091;-84
2022/04/04 03:16:05;;;;;;;6.08;5.47;;;;;;;1.64;100.00;100214.11;1677746;85;21129;-83
2022/04/04 03:18:35;;;;;;;9.63;4.80;;;;;;;1.63;100.00;100217.58;1670814;85;21165;-79
2022/04/04 03:21:04;;;;;;;5.75;5.17;;;;;;;1.61;100.00;100224.50;1677387;85;21194;-78
2022/04/04 03:23:33;;;;;;;;;;;;;;;1.60;100.00;100228.00;1672832;85;21094;-79
2022/04/04 03:26:02;;;;;;;7.12;5.30;;;;;;;1.58;100.00;100234.45;1677588;85;20530;-79
2022/04/04 03:28:29;;;;;;;7.58;5.08;;;;;;;1.58;100.00;100234.45;1670604;85;21583;-81
2022/04/04 03:30:57;;;;;;;14.70;5.58;;;;;;;1.56;100.00;100234.97;1677704;85;21145;-78
2022/04/04 03:33:25;;;;;;;6.75;5.45;;;;;;;1.52;100.00;100238.58;1670082;85;21195;-79
2022/04/04 03:35:54;;;;;;;6.05;5.15;;;;;;;1.51;100.00;100247.17;1677374;85;21023;-78
2022/04/04 03:38:22;;;;;;;6.00;5.40;;;;;;;1.50;100.00;100246.79;1670515;85;21615;-78
2022/04/04 03:40:49;;;;;;;5.83;5.10;;;;;;;1.50;100.00;100257.05;1677780;85;21072;-79
2022/04/04 03:43:17;;;;;;;6.20;4.75;;;;;;;1.51;100.00;100252.77;1670269;85;21055;-79
2022/04/04 03:45:44;;;;;;;5.90;5.40;;;;;;;1.50;100.00;100264.75;1677516;85;21802;-79
2022/04/04 03:48:11;;;;;;;6.00;5.40;;;;;;;1.49;100.00;100264.37;1670032;85;21069;-79
2022/04/04 03:50:40;;;;;;;6.40;5.72;;;;;;;1.48;100.00;100269.14;1658622;84;21588;-79
2022/04/04 03:53:07;;;;;;;6.85;5.67;;;;;;;1.49;100.00;100272.06;1659141;86;21752;-77
2022/04/04 03:55:38;;;;;;;6.80;5.95;;;;;;;1.51;100.00;100274.13;1659089;86;21155;-79
2022/04/04 03:58:08;;;;;;;7.58;6.78;;;;;;;1.53;100.00;100279.19;1655270;86;21603;-80
2022/04/04 04:00:38;;;;;;;7.85;6.70;;;;;;;1.55;100.00;100285.94;1658625;86;21097;-79
2022/04/04 04:03:07;;;;;;;7.78;6.78;;;;;;;1.55;100.00;100291.51;1658911;86;21106;-79
2022/04/04 04:05:36;;;;;;;7.33;6.62;;;;;;;1.54;100.00;100289.41;1661897;85;21058;-78
2022/04/04 04:08:05;;;;;;;7.90;7.08;;;;;;;1.54;100.00;100293.25;1670443;85;21036;-78
2022/04/04 04:10:34;;;;;;;8.18;7.37;;;;;;;1.57;100.00;100298.70;1677188;84;21207;-80
2022/04/04 04:13:05;;;;;;;8.50;6.65;;;;;;;1.57;100.00;100299.52;1670366;85;21015;-78
2022/04/04 04:15:31;;;;;;;8.63;7.72;;;;;;;1.60;100.00;100304.15;1675247;85;21065;-78
2022/04/04 04:18:00;;;;;;;11.35;8.98;;;;;;;1.60;100.00;100307.56;1670247;85;21079;-84
2022/04/04 04:20:31;;;;;;;10.45;9.03;;;;;;;1.61;100.00;100316.09;1677600;85;21114;-80
2022/04/04 04:23:08;;;;;;;10.55;8.28;;;;;;;1.60;100.00;100322.11;1668184;85;21422;-78
2022/04/04 04:25:37;;;;;;;9.55;8.25;;;;;;;1.58;100.00;100320.44;1677280;85;21031;-78
2022/04/04 04:28:06;;;;;;;8.83;7.92;;;;;;;1.58;100.00;100326.86;1670693;85;21063;-78
2022/04/04 04:30:34;;;;;;;10.70;8.40;;;;;;;1.60;100.00;100320.83;1677248;85;22012;-79
2022/04/04 04:33:02;;;;;;;10.08;8.80;;;;;;;1.59;100.00;100328.99;1670712;85;21176;-78
2022/04/04 04:35:31;;;;;;;9.15;8.25;;;;;;;1.61;100.00;100331.48;1677538;85;21618;-85
2022/04/04 04:37:58;;;;;;;9.73;8.70;;;;;;;1.61;100.00;100340.01;1659356;85;21101;-84
2022/04/04 04:40:25;;;;;;;8.70;7.80;;;;;;;1.62;100.00;100345.99;1651460;86;21090;-84
2022/04/04 04:42:53;;;;;;;9.68;8.38;;;;;;;1.61;100.00;100342.57;1656393;86;21638;-85
2022/04/04 04:45:20;;;;;;;9.00;8.10;;;;;;;1.63;100.00;100357.94;1656019;86;21614;-79
2022/04/04 04:47:49;;;;;;;10.68;7.17;;;;;;;1.64;100.00;100362.99;1656498;86;21519;-79
2022/04/04 04:50:19;;;;;;;10.25;7.67;;;;;;;1.66;100.00;100377.04;1629188;86;21120;-79
2022/04/04 04:52:49;;;;;;;8.75;7.45;;;;;;;1.67;100.00;100376.14;1620299;86;21137;-77
2022/04/04 04:55:18;;;;;;;8.68;7.78;;;;;;;1.67;100.00;100373.58;1618020;86;21143;-79
2022/04/04 04:57:47;;;;;;;7.55;6.70;;;;;;;1.66;100.00;100377.04;1621960;86;21101;-80
2022/04/04 05:00:18;;;;;;;10.23;7.20;;;;;;;1.68;100.00;100381.66;1590222;86;21286;-80
2022/04/04 05:03:24;;;;;;;10.15;7.60;;;;;;;1.72;100.00;100378.91;1617385;86;21088;-80
2022/04/04 05:05:16;;;;;;;8.75;6.87;;;;;;;1.80;100.00;100386.30;1619397;85;21124;-83
2022/04/04 05:07:45;;;;;;;11.25;8.40;;;;;;;1.85;100.00;100385.64;1631979;85;21059;-78
2022/04/04 05:10:12;;;;;;;10.15;8.03;;;;;;;1.88;100.00;100380.36;1621143;85;21112;-80
2022/04/04 05:12:40;;;;;;;9.48;7.37;;;;;;;1.91;100.00;100392.70;1618262;86;21826;-80
2022/04/04 05:15:37;;;;;;;9.30;7.17;;;;;;;1.99;100.00;100389.35;1629010;86;21638;-79
2022/04/04 05:18:05;;;;;;;10.40;7.60;;;;;;;1.99;100.00;100403.48;1600582;88;21561;-78
2022/04/04 05:20:34;;;;;;;10.43;7.72;;;;;;;1.92;100.00;100404.20;1638270;85;21651;-78
2022/04/04 05:23:02;;;;;;;8.75;7.37;;;;;;;1.93;100.00;100406.31;1633900;85;21090;-78
2022/04/04 05:25:31;;;;;;;13.60;7.60;;;;;;;1.92;100.00;100414.48;1595962;88;21176;-83
2022/04/04 05:28:08;;;;;;;8.20;6.53;;;;;;;1.91;100.00;100410.67;1595516;89;21803;-81
2022/04/04 05:30:35;;;;;;;9.88;5.87;;;;;;;1.92;100.00;100417.05;1642959;86;21576;-79
2022/04/04 05:33:06;;;;;;;7.53;6.28;;;;;;;1.91;100.00;100416.66;1618579;86;21042;-79
2022/04/04 05:35:33;;;;;;;10.82;7.87;;;;;;;1.88;100.00;100427.87;1618769;87;21634;-79
2022/04/04 05:38:01;;;;;;;8.38;6.05;;;;;;;1.84;100.00;100423.77;1618562;87;22186;-79
2022/04/04 05:40:41;;;;;;;13.20;7.53;;;;;;;1.81;100.00;100422.61;1619889;86;21629;-79
2022/04/04 05:43:49;;;;;;;8.35;7.20;;;;;;;1.81;100.00;100434.16;1653810;86;21148;-79
2022/04/04 05:46:18;;;;;;;8.90;6.85;;;;;;;1.81;100.00;100440.58;1657345;86;21650;-79
2022/04/04 05:48:49;;;;;;;9.08;6.15;;;;;;;1.85;100.00;100437.00;1656195;86;21089;-79
2022/04/04 05:51:21;;;;;;;8.70;6.28;;;;;;;1.86;100.00;100433.97;1642296;86;21849;-79
2022/04/04 05:53:48;;;;;;;8.25;6.85;;;;;;;1.83;100.00;100449.52;1619809;86;20975;-80
2022/04/04 06:00:25;;;;;;;8.05;7.20;;;;;;;1.76;100.00;100451.50;1642800;85;21018;-79
2022/04/04 06:02:52;;;;;;;10.43;7.53;;;;;;;1.79;100.00;100459.52;1655089;86;21019;-80
2022/04/04 06:05:20;;;;;;;8.68;7.37;;;;;;;1.75;100.00;100462.66;1655115;85;21574;-79
2022/04/04 06:07:48;;;;;;;8.48;7.58;;;;;;;1.72;100.00;100471.33;1649012;86;21054;-79
2022/04/04 06:10:16;;;;;;;7.87;6.95;;;;;;;1.73;100.00;100465.73;1655939;86;21567;-78
2022/04/04 06:12:45;;;;;;;8.58;7.28;;;;;;;1.76;100.00;100478.92;1656654;86;21027;-79
2022/04/04 06:15:15;;;;;;;7.35;6.65;;;;;;;1.81;100.00;100476.53;1656655;86;22005;-81
2022/04/04 06:17:44;;;;;;;8.38;6.60;;;;;;;1.89;100.00;100481.37;1656188;86;21268;-84
2022/04/04 06:20:12;;;;;;;7.33;6.60;;;;;;;1.94;100.00;100492.73;1629945;86;21061;-78
2022/04/04 06:22:41;;;;;;;8.58;6.92;;;;;;;1.96;100.00;100485.81;1656491;86;21104;-78
2022/04/04 06:25:15;;;;;;;7.47;6.70;;;;;;;2.00;100.00;100495.05;1652683;86;21102;-77
2022/04/04 06:27:44;;;;;;;7.62;6.83;;;;;;;2.02;100.00;100503.53;1645871;86;21023;-78
2022/04/04 06:30:13;;;;;;;7.70;6.90;;;;;;;1.99;100.00;100500.64;1618446;87;21121;-79
2022/04/04 06:32:44;;;;;;;7.80;6.62;;;;;;;1.99;100.00;100500.64;1627064;86;21089;-77
2022/04/04 06:35:14;;;;;;;7.50;6.12;;;;;;;1.98;100.00;100504.11;1653057;86;21483;-86
2022/04/04 06:37:45;;;;;;;6.90;6.00;;;;;;;1.97;100.00;100510.14;1663511;85;21042;-79
2022/04/04 06:40:13;;;;;;;;;;;;;;;1.97;100.00;100504.15;1665425;85;21025;-80
2022/04/04 06:42:44;;;;;;;8.25;6.47;;;;;;;1.95;100.00;100511.92;1656451;86;21187;-79
2022/04/04 06:45:13;;;;;;;7.22;6.03;;;;;;;1.93;100.00;100514.17;1656612;86;21172;-79
2022/04/04 06:47:40;;;;;;;8.78;7.30;;;;;;;1.89;100.00;100509.61;1656508;86;21117;-80
2022/04/04 06:50:08;;;;;;;7.33;6.62;;;;;;;1.87;100.00;100510.11;1657127;85;21333;-79
2022/04/04 06:52:37;;;;;;;7.50;6.78;;;;;;;1.87;100.00;100523.81;1656697;86;21051;-78
2022/04/04 06:55:11;;;;;;;8.15;6.83;;;;;;;1.87;100.00;100542.22;1656699;86;21130;-79
2022/04/04 06:57:38;;;;;;;9.58;6.53;;;;;;;1.87;100.00;100542.22;1604502;88;21598;-80
2022/04/04 07:00:09;;;;;;;7.78;6.83;;;;;;;1.83;100.00;100539.39;1629958;88;21042;-79
2022/04/04 07:02:44;;;;;;;8.85;7.08;;;;;;;1.77;100.00;100547.31;1634345;86;21414;-79
2022/04/04 07:05:12;;;;;;;9.95;7.87;;;;;;;1.72;100.00;100549.64;1641260;86;21066;-79
2022/04/04 07:07:39;;;;;;;8.90;7.95;;;;;;;1.72;100.00;100559.08;1656738;86;21817;-78
2022/04/04 07:10:10;;;;;;;9.40;7.55;;;;;;;1.76;100.00;100561.08;1634437;86;21163;-80
2022/04/04 07:12:41;;;;;;;;;;;;;;;1.86;100.00;100558.52;1645403;86;21176;-84
2022/04/04 07:15:11;;;;;;;9.18;7.67;;;;;;;2.00;100.00;100552.84;1576676;88;20171;-79
2022/04/04 07:17:43;;;;;;;9.33;7.85;;;;;;;2.10;100.00;100565.70;1639508;86;21057;-79
2022/04/04 07:20:11;;;;;;;9.23;7.33;;;;;;;2.14;100.00;100568.98;1651639;86;21323;-79
2022/04/04 07:22:42;;;;;;;7.15;6.45;;;;;;;2.13;100.00;100560.42;1635595;86;21094;-80
2022/04/04 07:25:14;;;;;;;8.63;7.62;;;;;;;2.20;100.00;100570.83;1645089;86;21046;-79
2022/04/04 07:27:45;;;;;;;7.17;6.28;;;;;;;2.32;100.00;100567.38;1646897;86;21446;-84
2022/04/04 07:30:17;;;;;;;7.47;6.72;;;;;;;2.53;100.00;100577.22;1634432;86;21601;-81
2022/04/04 07:32:47;;;;;;;9.93;7.42;;;;;;;2.92;100.00;100580.27;1656498;85;21104;-79
2022/04/04 07:35:15;;;;;;;7.35;6.45;;;;;;;2.92;100.00;100580.27;1639033;86;21062;-80
2022/04/04 07:37:46;;;;;;;6.72;6.03;;;;;;;3.03;100.00;100587.51;1639844;86;21121;-80
2022/04/04 07:40:17;;;;;;;7.30;6.55;;;;;;;3.10;100.00;100577.80;1634789;86;21086;-79
2022/04/04 07:42:46;;;;;;;8.98;6.58;;;;;;;3.24;100.00;100589.59;1650217;86;21587;-82
2022/04/04 07:45:16;;;;;;;7.72;6.92;;;;;;;3.38;100.00;100582.53;1643544;85;22315;-84
2022/04/04 07:47:47;;;;;;;7.70;6.30;;;;;;;3.46;100.00;100586.88;1657429;85;21533;-79
2022/04/04 07:50:15;;;;;;;8.28;6.47;;;;;;;3.48;100.00;100589.37;1650534;86;21090;-78
2022/04/04 07:52:43;;;;;;;8.38;6.37;;;;;;;3.54;100.00;100601.14;1636520;85;21086;-79
2022/04/04 07:55:10;;;;;;;7.37;5.80;;;;;;;3.62;100.00;100605.48;1660863;85;21034;-79
2022/04/04 07:57:40;;;;;;;6.85;5.97;;;;;;;3.59;100.00;100606.47;1661232;85;21086;-79
2022/04/04 08:00:11;;;;;;;8.15;6.33;;;;;;;3.62;100.00;100606.31;1654710;85;21073;-81
2022/04/04 08:02:39;;;;;;;8.50;6.55;;;;;;;3.75;100.00;100601.89;1637938;85;21084;-80
2022/04/04 08:05:08;;;;;;;8.18;6.60;;;;;;;3.82;100.00;100604.99;1640681;86;21079;-79
2022/04/04 08:07:38;;;;;;;7.95;6.12;;;;;;;3.82;100.00;100611.43;1656437;86;21089;-86
2022/04/04 08:10:10;;;;;;;9.78;6.62;;;;;;;3.73;100.00;100620.44;1628444;86;21046;-80
2022/04/04 08:12:42;;;;;;;7.33;6.25;;;;;;;3.68;100.00;100615.50;1648263;86;21674;-80
2022/04/04 08:15:10;;;;;;;7.42;6.12;;;;;;;3.76;100.00;100615.16;1651685;86;21089;-80
2022/04/04 08:17:38;;;;;;;7.72;5.80;;;;;;;3.89;100.00;100615.39;1652640;86;21010;-79
2022/04/04 08:20:10;;;;;;;7.00;6.30;;;;;;;3.93;100.00;100614.35;1634334;86;21078;-80
2022/04/04 08:22:45;;;;;;;7.03;5.67;;;;;;;4.00;100.00;100614.91;1614150;86;21977;-81
2022/04/04 08:25:15;;;;;;;6.78;5.60;;;;;;;4.20;100.00;100611.38;1635873;86;21086;-80
2022/04/04 08:27:45;;;;;;;7.03;5.50;;;;;;;4.54;100.00;100613.12;1656254;86;21101;-81
2022/04/04 08:30:17;;;;;;;5.87;5.25;;;;;;;4.85;100.00;100608.13;1638490;86;21128;-80
2022/04/04 08:32:46;;;;;;;6.63;5.10;;;;;;;5.00;100.00;100615.11;1653558;86;21058;-79
2022/04/04 08:35:17;;;;;;;6.22;5.62;;;;;;;5.02;100.00;100609.39;1655737;86;21628;-79
2022/04/04 08:37:47;;;;;;;6.53;5.40;;;;;;;5.02;100.00;100613.27;1653168;86;21099;-80
2022/04/04 08:40:18;;;;;;;6.33;5.00;;;;;;;5.07;100.00;100607.05;1644859;86;21090;-79
2022/04/04 08:42:48;;;;;;;5.65;4.50;;;;;;;5.00;100.00;100608.66;1657150;86;21030;-79
2022/04/04 08:45:16;;;;;;;6.53;4.80;;;;;;;4.94;100.00;100618.45;1635745;85;21005;-79
2022/04/04 08:47:44;;;;;;;7.03;5.20;;;;;;;4.89;100.00;100610.48;1620944;86;21646;-82
2022/04/04 08:50:12;;;;;;;5.83;4.80;;;;;;;4.94;100.00;100621.04;1598263;88;21094;-79
2022/04/04 08:52:41;;;;;;;5.90;5.08;;;;;;;4.92;100.00;100612.09;1651472;86;21532;-80
2022/04/04 08:55:13;;;;;;;8.03;5.50;;;;;;;4.87;100.00;100612.77;1644638;86;21477;-79
2022/04/04 08:57:43;;;;;;;9.20;6.22;;;;;;;4.73;100.00;100631.52;1646569;85;22135;-82
2022/04/04 09:00:12;;;;;;;7.45;6.10;;;;;;;4.51;100.00;100624.86;1658527;85;22263;-79
2022/04/04 09:02:58;;;;;;;7.47;6.55;;;;;;;4.36;100.00;100626.91;1639878;85;21102;-80
2022/04/04 09:05:29;;;;;;;13.65;9.13;;;;;;;4.26;100.00;100627.35;1633808;86;21034;-79
2022/04/04 09:08:04;;;;;;;10.32;6.90;;;;;;;4.22;100.00;100632.73;1649945;85;21099;-81
2022/04/04 09:10:36;;;;;;;9.43;7.10;;;;;;;4.17;100.00;100638.10;1648147;85;21065;-79
2022/04/04 09:13:13;;;;;;;11.93;7.55;;;;;;;4.20;100.00;100635.39;1665480;85;21189;-85
2022/04/04 09:16:07;;;;;;;8.45;6.97;;;;;;;4.26;100.00;100631.22;1657430;85;21027;-78
2022/04/04 09:18:42;;;;;;;10.58;7.22;;;;;;;4.35;100.00;100638.13;1651170;85;21079;-79
2022/04/04 09:21:14;;;;;;;8.80;6.75;;;;;;;4.45;100.00;100626.94;1634370;87;21030;-80
2022/04/04 09:23:48;;;;;;;7.08;5.90;;;;;;;4.54;100.00;100633.75;1577662;89;21122;-82
2022/04/04 09:26:42;;;;;;;9.63;7.65;;;;;;;4.55;100.00;100628.13;1630221;86;21255;-80
2022/04/04 09:29:20;;;;;;;8.95;7.28;;;;;;;4.50;100.00;100636.08;1651115;86;21105;-86
2022/04/04 09:32:14;;;;;;;7.20;6.45;;;;;;;4.46;100.00;100647.48;1630400;86;21084;-79
2022/04/04 09:35:10;;;;;;;8.98;7.37;;;;;;;4.45;100.00;100646.27;1643515;85;21050;-82
2022/04/04 09:37:44;;;;;;;9.18;7.62;;;;;;;4.53;100.00;100646.27;1643492;86;21023;-81
2022/04/04 09:40:19;;;;;;;7.87;7.08;;;;;;;4.71;100.00;100648.38;1654131;86;22436;-83
2022/04/04 09:42:58;;;;;;;8.40;6.83;;;;;;;4.96;100.00;100640.69;1653477;86;21373;-81
2022/04/04 09:45:29;;;;;;;7.03;6.33;;;;;;;5.29;100.00;100638.56;1598095;88;21698;-83
2022/04/04 09:48:09;;;;;;;7.67;6.37;;;;;;;5.57;100.00;100631.91;1640845;86;21144;-82
2022/04/04 09:50:50;;;;;;;7.58;6.75;;;;;;;5.73;100.00;100633.69;1651067;86;21053;-80
2022/04/04 09:53:22;;;;;;;7.20;6.00;;;;;;;5.69;100.00;100645.92;1636752;86;21085;-84
2022/04/04 09:55:56;;;;;;;5.85;5.10;;;;;;;5.60;100.00;100649.84;1601384;88;21016;-80
2022/04/04 09:58:29;;;;;;;6.87;5.72;;;;;;;5.48;97.50;100660.37;1632236;86;21666;-80
2022/04/04 10:01:01;;;;;;;6.53;5.33;;;;;;;5.41;97.57;100664.20;1653636;86;21141;-79
2022/04/04 10:03:31;;;;;;;6.72;6.12;;;;;;;5.41;100.00;100656.92;1655759;86;21117;-81
2022/04/04 10:06:06;;;;;;;10.05;6.80;;;;;;;5.49;100.00;100656.88;1640362;86;21924;-83
2022/04/04 10:08:38;;;;;;;19.20;14.23;;;;;;;5.69;100.00;100657.55;1647656;86;21065;-79
2022/04/04 10:11:10;;;;;;;12.15;8.63;;;;;;;5.88;100.00;100652.23;1656235;86;21121;-80
2022/04/04 10:13:40;;;;;;;28.47;7.78;;;;;;;5.96;100.00;100650.06;1636625;86;21081;-81
2022/04/04 10:16:11;;;;;;;28.05;9.00;;;;;;;5.98;100.00;100658.55;1650421;86;21606;-80
2022/04/04 10:18:43;;;;;;;13.18;7.03;;;;;;;5.98;100.00;100664.19;1655685;86;21845;-81
2022/04/04 10:21:14;;;;;;;18.35;6.62;;;;;;;5.89;100.00;100665.98;1658304;85;21033;-81
2022/04/04 10:23:44;;;;;;;9.95;5.78;;;;;;;5.89;95.77;100662.09;1663935;85;21077;-82
2022/04/04 10:26:14;;;;;;;30.55;7.42;;;;;;;5.90;93.20;100657.31;1638797;86;21800;-86
2022/04/04 10:28:46;;;;;;;16.48;6.30;;;;;;;5.93;95.03;100663.14;1650585;85;20998;-84
2022/04/04 10:31:19;;;;;;;15.70;5.50;;;;;;;5.98;94.82;100651.27;1673517;85;21171;-80
2022/04/04 10:33:58;;;;;;;9.90;4.20;;;;;;;5.99;87.46;100662.02;1651036;85;21041;-81
2022/04/04 10:37:08;;;;;;;8.55;5.20;;;;;;;5.78;76.89;100662.69;1638056;86;21148;-79
2022/04/04 10:54:38;;;;;;;5.75;4.50;;;;;;;5.87;90.52;100671.23;1661950;86;21084;-80
2022/04/04 11:08:13;;;;;;;5.33;4.83;;;;;;;6.33;82.42;100673.51;1658014;86;21577;-79
2022/04/04 11:15:04;;;;;;;7.15;4.92;;;;;;;6.30;75.99;100672.75;1661369;86;21037;-86
2022/04/04 11:17:43;;;;;;;6.12;4.20;;;;;;;6.22;72.43;100671.53;1661163;86;21129;-79
2022/04/04 11:27:37;;;;;;;6.30;4.67;;;;;;;6.09;76.56;100685.59;1661783;86;21117;-80
2022/04/04 11:30:17;;;;;;;6.65;5.35;;;;;;;6.15;70.49;100689.13;1644144;86;21122;-81
2022/04/04 11:32:47;;;;;;;5.75;5.15;;;;;;;6.22;71.83;100694.33;1659560;86;21846;-80
2022/04/04 11:39:48;;;;;;;6.30;5.35;;;;;;;6.21;70.12;100688.78;1661830;85;21060;-80
2022/04/04 11:42:58;;;;;;;7.12;5.78;;;;;;;6.05;70.78;100690.58;1649868;86;21103;-79
2022/04/04 11:49:38;;;;;;;10.65;6.87;;;;;;;5.99;69.56;100699.49;1618320;86;21144;-82
2022/04/04 11:52:09;;;;;;;6.75;5.65;;;;;;;5.94;74.08;100698.86;1657481;85;21244;-82
2022/04/04 11:54:45;;;;;;;6.90;5.42;;;;;;;5.99;73.10;100700.78;1657628;85;21024;-83
2022/04/04 11:57:14;;;;;;;8.83;5.87;;;;;;;6.05;74.17;100700.91;1657279;85;21107;-85
2022/04/04 11:59:47;;;;;;;6.50;5.80;;;;;;;6.12;73.71;100698.36;1651165;85;21074;-82
2022/04/04 12:02:16;;;;;;;10.58;6.53;;;;;;;6.19;76.99;100685.47;1652228;85;21030;-81
2022/04/04 12:04:45;;;;;;;13.72;6.00;;;;;;;6.28;71.69;100688.84;1656560;85;22183;-81
2022/04/04 12:07:12;;;;;;;7.33;5.95;;;;;;;6.33;70.70;100694.20;1648628;85;21033;-81
2022/04/04 12:09:41;;;;;;;11.48;6.50;;;;;;;6.38;71.46;100693.03;1655607;86;21115;-82
2022/04/04 12:12:12;;;;;;;11.38;6.87;;;;;;;6.35;70.17;100685.43;1653085;85;21072;-81
2022/04/04 12:14:43;;;;;;;13.15;7.12;;;;;;;6.35;67.89;100694.48;1655168;85;21091;-83
2022/04/04 12:17:11;;;;;;;6.57;5.97;;;;;;;6.56;72.64;100690.33;1646657;85;21335;-83
2022/04/04 12:19:49;;;;;;;10.23;6.90;;;;;;;6.84;76.14;100684.83;1651033;85;21616;-84
2022/04/04 12:25:11;;;;;;;9.68;7.33;;;;;;;6.85;68.14;100683.44;1644327;85;21174;-83
2022/04/04 12:27:58;;;;;;;7.87;7.08;;;;;;;6.75;69.59;100692.69;1647228;85;21058;-87
2022/04/04 12:30:36;;;;;;;9.55;6.33;;;;;;;6.68;71.40;100696.55;1656964;85;21262;-82
2022/04/04 12:33:10;;;;;;;7.70;6.00;;;;;;;6.68;71.01;100697.38;1630041;86;21071;-81
2022/04/04 12:35:46;;;;;;;7.05;6.30;;;;;;;6.65;68.06;100698.83;1652487;85;21615;-82